Time;durP1;ratioP1;P1;durP2;ratioP2;P2;SDS_P1;SDS_P2;PMS_P1;PMS_P2;Temp;Humidity;BMP_temperature;BMP_pressure;BME280_temperature;BME280_humidity;BME280_pressure;Samples;Min_cycle;Max_cycle;Signal;HPM_P1;HPM_P2
2022/10/27 00:00:41;;;;;;;;;15.25;9.00;;;;;16.29;91.44;99936.00;5013427;28;45449;-72
2022/10/27 00:03:09;;;;;;;;;12.00;12.00;;;;;16.27;91.73;99935.19;5013714;28;45644;-72
2022/10/27 00:05:35;;;;;;;;;16.00;12.00;;;;;16.26;91.46;99933.47;5014412;28;45432;-72
2022/10/27 00:08:00;;;;;;;;;15.75;13.00;;;;;16.25;91.50;99937.09;5009591;28;45523;-72
2022/10/27 00:10:26;;;;;;;;;22.00;17.50;;;;;16.24;91.80;99943.38;5015432;28;45934;-72
2022/10/27 00:12:51;;;;;;;;;13.00;12.75;;;;;16.23;91.98;99938.97;5011808;28;45399;-72
2022/10/27 00:15:17;;;;;;;;;14.25;13.00;;;;;16.22;91.31;99951.41;5014029;28;45457;-72
2022/10/27 00:17:42;;;;;;;;;17.50;14.50;;;;;16.22;91.76;99955.88;5014036;28;45800;-72
2022/10/27 00:20:08;;;;;;;;;16.00;14.50;;;;;16.21;91.70;99955.03;5014389;28;45574;-72
2022/10/27 00:22:34;;;;;;;;;12.00;11.75;;;;;16.20;91.77;99950.63;5013947;28;45541;-72
2022/10/27 00:24:59;;;;;;;;;15.75;14.25;;;;;16.19;92.19;99951.56;5015456;28;45630;-72
2022/10/27 00:27:26;;;;;;;;;15.00;14.00;;;;;16.17;91.85;99953.44;5014495;28;45303;-72
2022/10/27 00:29:52;;;;;;;;;13.75;12.25;;;;;16.17;92.22;99956.09;5015389;28;45479;-72
2022/10/27 00:32:17;;;;;;;;;12.00;11.75;;;;;16.16;92.37;99958.84;5010639;28;45314;-72
2022/10/27 00:34:42;;;;;;;;;15.25;11.75;;;;;16.15;92.14;99957.13;5015080;28;46420;-72
2022/10/27 00:37:08;;;;;;;;;12.25;10.75;;;;;16.15;92.11;99959.78;5014243;28;45551;-72
2022/10/27 00:39:33;;;;;;;;;12.75;12.75;;;;;16.14;92.39;99963.38;5015442;28;45929;-72
2022/10/27 00:41:59;;;;;;;;;15.00;13.00;;;;;16.13;92.20;99964.31;5020301;28;45590;-72
2022/10/27 00:44:33;;;;;;;;;16.25;15.75;;;;;16.13;92.34;99958.97;5011568;28;46341;-72
2022/10/27 00:47:06;;;;;;;;;12.60;12.40;;;;;16.12;92.63;99971.41;5012852;28;45422;-72
2022/10/27 00:49:37;;;;;;;;;14.50;12.25;;;;;16.10;92.12;99967.97;5015163;28;45457;-72
2022/10/27 00:52:07;;;;;;;;;18.00;14.25;;;;;16.10;92.07;99969.75;5005311;28;45525;-72
2022/10/27 00:54:38;;;;;;;;;11.75;11.75;;;;;16.09;92.38;99966.25;5014810;28;46730;-72
2022/10/27 00:57:05;;;;;;;;;14.40;13.40;;;;;16.07;92.31;99967.28;5012688;28;45446;-72
2022/10/27 00:59:31;;;;;;;;;15.00;12.75;;;;;16.04;92.10;99969.16;5015153;28;45473;-72
2022/10/27 01:01:56;;;;;;;;;14.50;12.25;;;;;16.03;92.45;99972.75;5012388;28;45397;-72
2022/10/27 01:04:47;;;;;;;;;14.75;12.50;;;;;16.02;92.75;99978.13;5014592;28;45516;-72
2022/10/27 01:07:16;;;;;;;;;14.20;12.60;;;;;16.02;92.65;99980.78;5013139;28;45561;-72
2022/10/27 01:09:42;;;;;;;;;13.50;12.00;;;;;16.00;92.45;99977.34;5014926;28;45382;-72
2022/10/27 01:12:07;;;;;;;;;14.75;12.75;;;;;15.98;93.03;99981.88;5007175;28;45425;-72
2022/10/27 01:14:33;;;;;;;;;17.25;12.50;;;;;15.97;92.80;99985.47;5013364;28;47260;-72
2022/10/27 01:17:17;;;;;;;;;12.75;11.00;;;;;15.96;92.72;99991.72;5013615;28;45472;-72
2022/10/27 01:20:00;;;;;;;;;15.75;12.50;;;;;15.93;92.81;99989.19;5014633;28;45549;-72
2022/10/27 01:22:48;;;;;;;;;17.00;12.50;;;;;15.91;92.80;99991.09;5011960;28;45350;-72
2022/10/27 01:25:45;;;;;;;;;13.25;10.00;;;;;15.88;92.76;99991.25;5013369;28;45380;-72
2022/10/27 01:28:36;;;;;;;;;13.40;12.20;;;;;15.86;92.96;99991.31;4991395;28;45755;-72
2022/10/27 01:31:12;;;;;;;;;12.75;12.75;;;;;15.83;93.06;99993.25;5009921;28;45365;-72
2022/10/27 01:33:54;;;;;;;;;14.00;13.75;;;;;15.79;93.24;99995.19;5005410;28;45319;-72
2022/10/27 01:36:27;;;;;;;;;15.00;12.50;;;;;15.77;93.81;100001.50;5014031;28;45657;-72
2022/10/27 01:39:20;;;;;;;;;14.75;13.75;;;;;15.74;93.73;99999.88;5008621;28;45492;-72
2022/10/27 01:41:54;;;;;;;;;17.00;11.25;;;;;15.69;94.17;99997.44;4999692;28;45709;-72
2022/10/27 01:44:27;;;;;;;;;15.25;14.75;;;;;15.65;94.21;99998.50;5008955;28;45395;-72
2022/10/27 01:46:54;;;;;;;;;17.00;14.50;;;;;15.62;94.36;99988.00;5008906;28;46215;-72
2022/10/27 01:49:20;;;;;;;;;18.60;15.60;;;;;15.58;94.06;99990.91;5007062;28;45533;-72
2022/10/27 01:51:47;;;;;;;;;16.25;15.50;;;;;15.55;94.40;99989.25;5012623;28;45382;-72
2022/10/27 01:54:13;;;;;;;;;14.75;12.00;;;;;15.53;94.41;99985.75;5001707;28;45491;-72
2022/10/27 01:56:47;;;;;;;;;17.75;14.25;;;;;15.50;93.94;99993.88;5002898;28;46501;-72
2022/10/27 01:59:50;;;;;;;;;14.20;11.80;;;;;15.47;93.95;99982.50;5011638;28;45446;-72
2022/10/27 02:02:33;;;;;;;;;14.50;14.00;;;;;15.42;93.65;99988.03;5013568;28;45613;-72
2022/10/27 02:05:11;;;;;;;;;13.50;11.00;;;;;15.39;93.65;99984.69;5014256;28;45551;-72
2022/10/27 02:07:39;;;;;;;;;13.25;11.50;;;;;15.35;93.77;99987.47;5013779;28;46274;-72
2022/10/27 02:10:04;;;;;;;;;14.50;13.50;;;;;15.33;93.97;99993.78;5012936;28;45372;-72
2022/10/27 02:12:34;;;;;;;;;15.00;13.25;;;;;15.30;94.12;99986.81;5012978;28;45507;-72
2022/10/27 02:15:02;;;;;;;;;13.25;10.50;;;;;15.28;94.20;99995.78;5007975;28;45464;-72
2022/10/27 02:17:35;;;;;;;;;14.50;11.25;;;;;15.26;94.06;99992.31;5008765;28;46510;-72
2022/10/27 02:20:05;;;;;;;;;14.75;12.50;;;;;15.24;94.45;99994.22;5031201;28;45447;-72
2022/10/27 02:22:31;;;;;;;;;15.00;12.00;;;;;15.21;94.70;99986.38;5011680;28;45333;-72
2022/10/27 02:24:57;;;;;;;;;13.50;12.00;;;;;15.17;94.55;99992.75;5009862;28;45327;-72
2022/10/27 02:27:48;;;;;;;;;13.00;11.75;;;;;15.17;94.77;99987.44;5012953;28;45315;-72
2022/10/27 02:30:14;;;;;;;;;13.00;13.00;;;;;15.14;95.31;99982.25;5017055;28;45437;-72
2022/10/27 02:32:40;;;;;;;;;15.25;13.75;;;;;15.13;95.45;99985.84;5017133;28;45393;-72
2022/10/27 02:35:09;;;;;;;;;13.75;12.75;;;;;15.12;95.59;99990.28;5017072;28;45527;-72
2022/10/27 02:37:40;;;;;;;;;15.75;12.00;;;;;15.11;95.62;99982.38;5012831;28;46437;-72
2022/10/27 02:40:06;;;;;;;;;11.80;11.80;;;;;15.10;95.93;99983.31;5017210;28;45372;-72
2022/10/27 02:42:32;;;;;;;;;14.75;13.00;;;;;15.08;95.92;99982.56;5012046;28;45161;-72
2022/10/27 02:44:57;;;;;;;;;11.75;10.50;;;;;15.06;95.75;99981.75;5017150;28;45577;-72
2022/10/27 02:47:23;;;;;;;;;13.00;12.00;;;;;15.05;95.91;99980.88;5012400;28;45430;-72
2022/10/27 02:49:48;;;;;;;;;15.50;14.50;;;;;15.03;95.95;99980.09;5015194;28;45579;-73
2022/10/27 02:52:14;;;;;;;;;15.25;13.00;;;;;15.01;96.16;99981.94;5017064;28;45417;-72
2022/10/27 02:54:41;;;;;;;;;16.25;14.00;;;;;15.00;95.96;99985.53;5018571;28;45532;-72
2022/10/27 02:57:07;;;;;;;;;14.00;12.25;;;;;14.98;96.17;99977.63;5015391;28;46332;-72
2022/10/27 02:59:32;;;;;;;;;15.00;14.50;;;;;14.97;96.37;99980.34;5008586;28;45521;-72
2022/10/27 03:01:57;;;;;;;;;14.25;13.50;;;;;14.95;96.62;99980.41;5016707;28;45488;-72
2022/10/27 03:04:23;;;;;;;;;15.25;14.25;;;;;14.93;96.33;99984.06;5014917;28;45580;-72
2022/10/27 03:06:48;;;;;;;;;13.25;11.25;;;;;14.92;96.29;99979.69;5016552;28;46553;-72
2022/10/27 03:09:13;;;;;;;;;14.25;13.25;;;;;14.91;96.54;99985.94;5008046;28;45515;-72
2022/10/27 03:11:39;;;;;;;;;17.50;16.00;;;;;14.90;96.48;99986.88;5015766;28;46065;-72
2022/10/27 03:14:04;;;;;;;;;13.75;13.00;;;;;14.89;96.34;99987.81;5016660;28;45406;-72
2022/10/27 03:16:30;;;;;;;;;16.25;16.25;;;;;14.86;96.29;99994.13;5016766;28;46261;-72
2022/10/27 03:18:55;;;;;;;;;16.75;14.75;;;;;14.84;96.55;99990.66;5007715;28;45415;-73
2022/10/27 03:21:20;;;;;;;;;15.00;14.00;;;;;14.83;96.42;99998.69;5016448;28;45318;-72
2022/10/27 03:23:46;;;;;;;;;15.75;14.50;;;;;14.80;96.08;99998.81;5007692;28;45337;-72
2022/10/27 03:26:11;;;;;;;;;11.25;11.25;;;;;14.79;96.25;99999.75;5014803;28;45849;-72
2022/10/27 03:28:37;;;;;;;;;15.25;13.00;;;;;14.76;96.45;100003.38;5011729;28;45496;-72
2022/10/27 03:31:06;;;;;;;;;13.25;13.25;;;;;14.76;96.52;100000.72;5016510;28;45672;-72
2022/10/27 03:33:32;;;;;;;;;14.75;14.75;;;;;14.74;96.78;99993.78;5020475;28;45505;-72
2022/10/27 03:35:58;;;;;;;;;15.50;15.00;;;;;14.71;96.52;99989.47;5016027;28;46377;-72
2022/10/27 03:38:23;;;;;;;;;15.00;13.00;;;;;14.69;96.80;99993.97;5011763;28;45416;-72
2022/10/27 03:40:49;;;;;;;;;16.25;14.25;;;;;14.66;97.02;99994.97;5016406;28;45482;-72
2022/10/27 03:43:15;;;;;;;;;12.75;12.75;;;;;14.63;97.08;99992.44;5010034;28;45377;-72
2022/10/27 03:45:40;;;;;;;;;12.75;11.25;;;;;14.62;97.27;99990.72;5015574;28;45488;-72
2022/10/27 03:48:09;;;;;;;;;15.50;13.50;;;;;14.62;97.53;99993.38;5012074;28;46021;-72
2022/10/27 03:50:34;;;;;;;;;14.25;13.75;;;;;14.61;97.21;99990.78;5014489;28;45555;-72
2022/10/27 03:53:02;;;;;;;;;19.00;15.00;;;;;14.61;97.51;99993.44;5013925;28;45437;-73
2022/10/27 03:55:28;;;;;;;;;15.25;15.00;;;;;14.61;97.17;99988.13;5014150;28;47351;-72
2022/10/27 03:57:53;;;;;;;;;16.00;14.75;;;;;14.60;97.12;99991.69;5008594;28;45503;-72
2022/10/27 04:00:19;;;;;;;;;20.75;18.50;;;;;14.60;97.05;99986.41;5010448;28;45911;-72
2022/10/27 04:02:44;;;;;;;;;17.25;15.50;;;;;14.59;97.12;99979.34;5013407;28;45365;-72
2022/10/27 04:05:10;;;;;;;;;17.00;16.00;;;;;14.59;97.17;99984.66;5015513;28;46240;-72
2022/10/27 04:07:36;;;;;;;;;18.75;16.75;;;;;14.56;97.32;99985.69;5011854;28;45464;-72
2022/10/27 04:10:01;;;;;;;;;16.50;13.50;;;;;14.55;97.42;99988.41;5015951;28;45507;-72
2022/10/27 04:12:27;;;;;;;;;14.50;13.75;;;;;14.54;97.07;100013.22;5010697;28;45465;-72
2022/10/27 04:14:52;;;;;;;;;18.50;16.75;;;;;14.54;97.08;100007.91;5015512;28;45361;-72
2022/10/27 04:17:18;;;;;;;;;21.00;18.75;;;;;14.54;97.21;100018.50;5012728;28;45383;-72
2022/10/27 04:19:43;;;;;;;;;17.00;15.00;;;;;14.52;97.19;100018.56;5012041;28;45581;-72
2022/10/27 04:22:09;;;;;;;;;14.25;13.00;;;;;14.50;96.99;100012.47;5013141;28;45723;-72
2022/10/27 04:24:34;;;;;;;;;16.00;14.75;;;;;14.50;97.10;100019.56;5012896;28;46044;-72
2022/10/27 04:27:01;;;;;;;;;13.25;12.25;;;;;14.49;97.58;100023.13;5014075;28;45497;-72
2022/10/27 04:29:26;;;;;;;;;17.25;16.75;;;;;14.47;97.04;100025.84;5007736;28;45460;-72
2022/10/27 04:31:52;;;;;;;;;17.75;15.00;;;;;14.45;96.74;100025.06;5015126;28;45594;-72
2022/10/27 04:34:17;;;;;;;;;17.25;15.75;;;;;14.45;96.86;100037.44;5008029;28;45607;-72
2022/10/27 04:36:42;;;;;;;;;16.25;15.00;;;;;14.42;96.85;100033.13;5013824;28;45326;-72
2022/10/27 04:39:12;;;;;;;;;17.25;16.50;;;;;14.41;97.33;100030.56;5013702;28;45765;-72
2022/10/27 04:41:38;;;;;;;;;16.75;15.00;;;;;14.40;97.12;100034.13;5014991;28;45498;-72
2022/10/27 04:44:04;;;;;;;;;14.25;12.25;;;;;14.37;97.40;100037.75;5013380;28;45358;-72
2022/10/27 04:46:29;;;;;;;;;20.25;17.25;;;;;14.37;97.31;100040.41;5015022;28;45509;-72
2022/10/27 04:48:54;;;;;;;;;15.50;15.50;;;;;14.37;97.25;100036.88;5011007;28;45282;-72
2022/10/27 04:51:20;;;;;;;;;26.25;19.00;;;;;14.37;97.45;100043.06;5014901;28;45350;-72
2022/10/27 04:53:45;;;;;;;;;20.75;16.00;;;;;14.37;97.87;100037.75;5011894;28;46260;-72
2022/10/27 04:56:11;;;;;;;;;17.00;14.00;;;;;14.38;97.58;100046.56;5013972;28;45519;-72
2022/10/27 04:58:36;;;;;;;;;16.00;12.25;;;;;14.38;97.44;100055.41;5012385;28;45378;-72
2022/10/27 05:01:09;;;;;;;;;16.25;15.00;;;;;14.37;97.24;100043.06;5014780;28;45467;-72
2022/10/27 05:03:34;;;;;;;;;14.00;13.00;;;;;14.37;97.52;100053.66;5012662;28;45520;-72
2022/10/27 05:06:00;;;;;;;;;5.75;5.50;;;;;14.36;97.39;100051.06;5014379;28;45488;-72
2022/10/27 05:08:25;;;;;;;;;19.50;15.75;;;;;14.35;97.34;100044.91;5011530;28;45558;-72
2022/10/27 05:10:50;;;;;;;;;16.50;14.25;;;;;14.35;97.47;100050.22;5014429;28;45552;-72
2022/10/27 05:13:16;;;;;;;;;17.50;16.00;;;;;14.33;97.28;100052.94;5009819;28;46524;-72
2022/10/27 05:15:41;;;;;;;;;13.50;13.50;;;;;14.32;97.39;100045.88;5014093;28;45485;-72
2022/10/27 05:18:07;;;;;;;;;18.50;18.25;;;;;14.30;97.38;100045.09;5008668;28;45525;-72
2022/10/27 05:20:32;;;;;;;;;17.50;17.00;;;;;14.29;97.44;100050.44;5012193;28;45463;-72
2022/10/27 05:22:57;;;;;;;;;16.50;14.00;;;;;14.27;97.36;100053.16;5024346;28;47759;-72
2022/10/27 05:25:23;;;;;;;;;19.75;15.25;;;;;14.25;97.33;100059.44;5029385;28;45421;-72
2022/10/27 05:27:48;;;;;;;;;16.00;16.00;;;;;14.23;97.54;100046.28;5007471;28;45509;-72
2022/10/27 05:30:14;;;;;;;;;14.50;11.50;;;;;14.20;97.49;100049.03;5010519;28;45362;-72
2022/10/27 05:32:40;;;;;;;;;15.75;13.50;;;;;14.18;97.74;100053.53;5010455;28;45511;-72
2022/10/27 05:35:17;;;;;;;;;16.00;15.00;;;;;14.17;97.24;100065.06;5010767;28;45394;-72
2022/10/27 05:37:46;;;;;;;;;16.75;13.75;;;;;14.16;97.56;100060.69;5010598;28;45323;-57
2022/10/27 05:40:12;;;;;;;;;16.25;15.50;;;;;14.21;97.52;100057.88;5012274;28;45557;-67
2022/10/27 05:42:37;;;;;;;;;13.25;13.00;;;;;14.23;97.12;100059.53;5008188;28;45530;-67
2022/10/27 05:45:03;;;;;;;;;14.25;14.25;;;;;14.23;96.92;100061.31;5011448;28;45430;-67
2022/10/27 05:47:28;;;;;;;;;17.00;15.50;;;;;14.22;97.05;100056.94;5010348;28;45432;-67
2022/10/27 05:49:54;;;;;;;;;16.00;13.00;;;;;14.22;96.84;100065.75;5007377;28;45422;-67
2022/10/27 05:52:19;;;;;;;;;16.75;14.75;;;;;14.21;96.76;100063.16;5012258;28;46420;-67
2022/10/27 05:54:44;;;;;;;;;20.75;16.25;;;;;14.22;96.97;100060.47;5006564;28;45406;-67
2022/10/27 05:57:10;;;;;;;;;16.50;15.25;;;;;14.20;96.55;100067.59;5009403;28;45394;-67
2022/10/27 05:59:35;;;;;;;;;19.25;15.25;;;;;14.18;96.44;100072.09;5013643;28;45362;-67
2022/10/27 06:02:00;;;;;;;;;18.25;15.75;;;;;14.17;96.31;100066.88;5014272;28;46278;-69
2022/10/27 06:04:26;;;;;;;;;19.50;15.25;;;;;14.16;96.66;100071.31;5016442;28;45432;-69
2022/10/27 06:06:52;;;;;;;;;15.75;14.75;;;;;14.14;96.92;100075.78;5013664;28;45481;-69
2022/10/27 06:09:18;;;;;;;;;15.00;14.00;;;;;14.13;96.55;100075.84;5008610;28;45543;-69
2022/10/27 06:11:43;;;;;;;;;18.00;16.00;;;;;14.11;96.52;100072.41;5014427;28;46680;-69
2022/10/27 06:14:08;;;;;;;;;18.50;15.00;;;;;14.09;96.71;100064.50;5008435;28;45597;-69
2022/10/27 06:16:34;;;;;;;;;14.50;14.50;;;;;14.09;96.95;100075.09;5006490;28;45450;-70
2022/10/27 06:18:59;;;;;;;;;14.00;12.00;;;;;14.10;97.32;100074.19;5011779;28;45737;-70
2022/10/27 06:21:25;;;;;;;;;17.00;15.25;;;;;14.11;97.46;100081.22;5016777;28;45410;-69
2022/10/27 06:23:50;;;;;;;;;19.25;18.25;;;;;14.11;97.17;100083.88;5014512;28;45430;-70
2022/10/27 06:26:16;;;;;;;;;18.00;16.50;;;;;14.15;97.49;100088.13;5016758;28;45880;-69
2022/10/27 06:28:41;;;;;;;;;16.00;15.25;;;;;14.16;97.23;100081.03;5010579;28;45553;-69
2022/10/27 06:31:06;;;;;;;;;17.75;15.50;;;;;14.17;97.09;100083.63;5016396;28;46244;-69
2022/10/27 06:33:32;;;;;;;;;19.00;16.25;;;;;14.19;97.23;100087.09;5014363;28;45405;-69
2022/10/27 06:35:57;;;;;;;;;18.50;17.50;;;;;14.22;97.25;100089.63;5012387;28;45855;-69
2022/10/27 06:38:22;;;;;;;;;19.75;15.25;;;;;14.24;97.16;100090.41;5009500;28;45382;-69
2022/10/27 06:40:48;;;;;;;;;22.00;17.75;;;;;14.28;96.82;100094.69;5016270;28;45701;-69
2022/10/27 06:43:13;;;;;;;;;17.50;14.75;;;;;14.29;96.58;100109.66;5013764;28;45455;-69
2022/10/27 06:45:40;;;;;;;;;17.25;15.25;;;;;14.33;96.43;100110.41;5009750;28;45275;-69
2022/10/27 06:48:09;;;;;;;;;16.25;14.00;;;;;14.34;96.28;100106.84;5011366;28;45518;-69
2022/10/27 06:50:34;;;;;;;;;24.00;17.25;;;;;14.35;96.28;100103.28;5014422;28;45355;-69
2022/10/27 06:53:00;;;;;;;;;19.25;17.75;;;;;14.37;95.82;100109.38;5013027;28;45442;-69
2022/10/27 06:55:26;;;;;;;;;17.50;14.50;;;;;14.40;96.09;100113.72;5014719;28;45473;-69
2022/10/27 06:57:52;;;;;;;;;21.25;17.50;;;;;14.41;96.09;100111.00;5004531;28;45410;-69
2022/10/27 07:00:18;;;;;;;;;19.75;16.00;;;;;14.45;95.65;100114.41;5011668;28;48065;-69
2022/10/27 07:02:43;;;;;;;;;16.25;14.00;;;;;14.47;95.50;100123.16;5011761;28;45461;-69
2022/10/27 07:05:08;;;;;;;;;19.50;15.25;;;;;14.49;95.43;100126.63;5016250;28;45697;-69
2022/10/27 07:07:35;;;;;;;;;16.00;15.00;;;;;14.52;95.35;100118.53;5013219;28;45466;-68
2022/10/27 07:10:01;;;;;;;;;17.00;15.25;;;;;14.53;95.50;100134.41;5027133;28;45620;-67
2022/10/27 07:12:26;;;;;;;;;19.50;17.75;;;;;14.59;95.31;100139.44;5014419;28;45423;-68
2022/10/27 07:14:52;;;;;;;;;18.00;14.00;;;;;14.62;95.20;100146.44;5009228;28;45569;-68
2022/10/27 07:17:17;;;;;;;;;19.00;16.75;;;;;14.65;94.88;100149.84;5012277;28;45405;-68
2022/10/27 07:19:42;;;;;;;;;18.50;17.50;;;;;14.69;94.69;100147.91;5008670;28;46272;-68
2022/10/27 07:22:08;;;;;;;;;17.00;14.25;;;;;14.71;94.60;100153.19;5013261;28;45330;-68
2022/10/27 07:24:33;;;;;;;;;18.75;16.50;;;;;14.74;94.08;100148.59;5013630;28;45887;-68
2022/10/27 07:26:59;;;;;;;;;20.50;18.00;;;;;14.80;94.06;100158.09;5015623;28;45530;-68
2022/10/27 07:29:24;;;;;;;;;17.25;15.25;;;;;14.83;94.40;100163.28;5010789;28;46072;-68
2022/10/27 07:31:49;;;;;;;;;17.50;16.75;;;;;14.87;93.92;100172.84;5014629;28;45376;-67
2022/10/27 07:34:15;;;;;;;;;20.00;18.50;;;;;14.90;93.71;100170.09;5014244;28;45387;-67
2022/10/27 07:36:40;;;;;;;;;17.25;16.50;;;;;14.93;93.74;100178.75;5016305;28;45730;-69
2022/10/27 07:39:06;;;;;;;;;15.00;14.25;;;;;14.98;93.24;100175.94;5008968;28;48399;-68
2022/10/27 07:41:32;;;;;;;;;19.75;17.25;;;;;15.02;93.20;100175.75;5015670;28;45470;-68
2022/10/27 07:43:57;;;;;;;;;21.75;18.25;;;;;15.06;92.54;100173.84;5014243;28;45383;-68
2022/10/27 07:46:23;;;;;;;;;15.00;14.00;;;;;15.08;92.47;100179.91;5015867;28;45320;-67
2022/10/27 07:48:48;;;;;;;;;17.00;16.00;;;;;15.12;92.17;100176.22;5007041;28;45493;-68
2022/10/27 07:51:13;;;;;;;;;14.50;13.75;;;;;15.16;92.01;100183.13;5014433;28;45461;-68
2022/10/27 07:53:39;;;;;;;;;16.50;15.50;;;;;15.20;91.85;100189.19;5015957;28;45465;-68
2022/10/27 07:56:04;;;;;;;;;17.50;14.50;;;;;15.24;91.88;100180.16;5015463;28;45449;-68
2022/10/27 07:58:30;;;;;;;;;20.75;17.50;;;;;15.30;91.67;100183.41;5011509;28;46783;-68
2022/10/27 08:00:56;;;;;;;;;20.25;18.75;;;;;15.35;91.58;100180.56;5014066;28;45487;-68
2022/10/27 08:03:25;;;;;;;;;16.00;16.00;;;;;15.41;91.15;100182.97;5010943;28;45315;-68
2022/10/27 08:05:51;;;;;;;;;18.75;15.00;;;;;15.45;91.10;100189.88;5015056;28;45457;-68
2022/10/27 08:08:17;;;;;;;;;14.50;14.50;;;;;15.49;90.88;100180.84;5008916;28;45540;-68
2022/10/27 08:10:44;;;;;;;;;15.80;14.60;;;;;15.53;90.73;100182.44;5015264;28;45496;-68
2022/10/27 08:13:11;;;;;;;;;17.25;15.25;;;;;15.59;90.45;100181.31;5014115;28;45432;-68
2022/10/27 08:15:38;;;;;;;;;18.75;16.25;;;;;15.63;90.39;100181.13;5015365;28;45248;-68
2022/10/27 08:18:05;;;;;;;;;14.25;13.00;;;;;15.69;90.59;100182.66;5014454;28;46551;-68
2022/10/27 08:20:37;;;;;;;;;19.25;17.75;;;;;15.73;90.26;100184.25;5012238;28;45437;-68
2022/10/27 08:23:05;;;;;;;;;16.00;15.00;;;;;15.76;89.90;100184.09;5006853;28;45337;-68
2022/10/27 08:25:31;;;;;;;;;10.50;10.50;;;;;15.81;89.75;100183.91;5014898;28;45451;-68
2022/10/27 08:27:57;;;;;;;;;19.00;15.75;;;;;15.85;89.38;100185.50;5023124;28;47797;-68
2022/10/27 08:30:25;;;;;;;;;18.00;12.00;;;;;15.89;89.14;100184.44;5015071;28;45458;-68
2022/10/27 08:32:56;;;;;;;;;15.50;14.75;;;;;15.91;88.77;100182.59;5008744;28;45318;-68
2022/10/27 08:35:21;;;;;;;;;15.00;15.00;;;;;15.96;88.66;100185.88;5014776;28;45528;-68
2022/10/27 08:37:46;;;;;;;;;13.50;12.50;;;;;15.98;88.50;100179.56;5014257;28;45640;-68
2022/10/27 08:40:12;;;;;;;;;17.75;16.50;;;;;16.02;88.53;100181.16;5021714;28;45380;-68
2022/10/27 08:42:55;;;;;;;;;15.50;14.00;;;;;16.07;87.96;100188.06;5011540;28;45447;-67
2022/10/27 08:45:28;;;;;;;;;20.25;17.25;;;;;16.11;87.96;100179.00;5013592;28;46012;-67
2022/10/27 08:47:56;;;;;;;;;15.75;13.75;;;;;16.14;87.36;100181.50;5012539;28;45503;-67
2022/10/27 08:50:25;;;;;;;;;15.50;14.50;;;;;16.19;87.16;100177.72;5014569;28;45660;-68
2022/10/27 08:53:02;;;;;;;;;17.25;14.75;;;;;16.24;87.37;100185.50;5013290;28;45397;-67
2022/10/27 08:55:32;;;;;;;;;16.00;11.75;;;;;16.30;87.18;100179.88;5013957;28;45370;-67
2022/10/27 08:58:13;;;;;;;;;19.00;17.25;;;;;16.37;86.75;100176.88;5014181;28;46273;-67
2022/10/27 09:00:57;;;;;;;;;19.25;16.25;;;;;16.42;86.37;100182.81;5012225;28;46035;-68
2022/10/27 09:03:34;;;;;;;;;19.50;16.75;;;;;16.49;85.96;100179.88;5004146;28;45486;-68
2022/10/27 09:06:07;;;;;;;;;15.00;15.00;;;;;16.56;85.22;100184.00;5014413;28;45632;-67
2022/10/27 09:08:46;;;;;;;;;18.00;16.75;;;;;16.61;84.54;100187.28;5006058;28;46549;-67
2022/10/27 09:11:41;;;;;;;;;14.40;14.40;;;;;16.66;84.51;100188.81;5014397;28;45416;-68
2022/10/27 09:14:45;;;;;;;;;20.50;15.00;;;;;16.74;84.54;100186.66;5011765;28;45398;-67
2022/10/27 09:17:20;;;;;;;;;15.75;15.25;;;;;16.81;84.21;100184.56;5010212;28;45489;-67
2022/10/27 09:20:13;;;;;;;;;20.50;18.25;;;;;16.88;83.96;100172.69;5014087;28;45623;-67
2022/10/27 09:22:41;;;;;;;;;15.20;12.80;;;;;16.96;83.95;100178.47;5009479;28;45374;-67
2022/10/27 09:25:17;;;;;;;;;17.50;16.25;;;;;17.02;83.90;100172.84;5011919;28;45488;-67
2022/10/27 09:27:45;;;;;;;;;21.50;17.25;;;;;17.09;83.01;100179.59;5010231;28;45596;-67
2022/10/27 09:30:12;;;;;;;;;15.75;14.00;;;;;17.17;83.10;100173.88;5012445;28;45439;-68
2022/10/27 09:32:41;;;;;;;;;14.25;12.00;;;;;17.24;82.98;100175.31;5011999;28;45401;-68
2022/10/27 09:35:13;;;;;;;;;24.00;21.50;;;;;17.32;82.52;100170.44;5013902;28;45371;-67
2022/10/27 09:37:40;;;;;;;;;15.00;13.25;;;;;17.38;81.29;100167.47;5007290;28;45489;-68
2022/10/27 09:40:29;;;;;;;;;13.25;11.00;;;;;17.46;80.49;100172.38;5009123;28;46609;-68
2022/10/27 09:42:56;;;;;;;;;15.00;13.40;;;;;17.53;79.92;100171.16;5010830;28;45415;-67
2022/10/27 09:45:24;;;;;;;;;16.75;14.50;;;;;17.60;80.09;100166.34;5013988;28;45449;-69
2022/10/27 09:47:54;;;;;;;;;14.75;14.75;;;;;17.67;79.98;100163.31;5012190;28;45453;-68
2022/10/27 09:50:23;;;;;;;;;12.75;11.50;;;;;17.74;79.23;100163.88;5013595;28;46464;-68
2022/10/27 09:52:49;;;;;;;;;12.40;10.80;;;;;17.81;79.13;100157.25;5010453;28;45291;-68
2022/10/27 09:55:16;;;;;;;;;13.25;11.25;;;;;17.88;78.96;100147.13;5012002;28;45390;-68
2022/10/27 09:57:44;;;;;;;;;12.75;11.00;;;;;17.95;78.65;100148.50;5013153;28;45418;-67
2022/10/27 10:00:16;;;;;;;;;14.00;13.50;;;;;18.05;78.24;100149.75;5015464;28;46797;-67
2022/10/27 10:02:56;;;;;;;;;12.00;12.00;;;;;18.12;77.40;100153.78;5010465;28;45455;-68
2022/10/27 10:05:25;;;;;;;;;14.50;12.00;;;;;18.18;77.07;100144.59;5011644;28;45497;-67
2022/10/27 10:07:52;;;;;;;;;14.00;12.75;;;;;18.23;77.00;100140.72;5009808;28;45488;-67
2022/10/27 10:10:28;;;;;;;;;17.25;14.25;;;;;18.31;76.78;100151.81;5010862;28;48153;-68
2022/10/27 10:13:03;;;;;;;;;16.20;14.00;;;;;18.38;76.75;100149.69;5007343;28;45327;-68
2022/10/27 10:15:31;;;;;;;;;15.75;11.25;;;;;18.43;76.31;100147.63;5013546;28;45346;-68
2022/10/27 10:17:59;;;;;;;;;10.25;10.25;;;;;18.48;76.08;100138.41;5008760;28;45502;-68
2022/10/27 10:20:41;;;;;;;;;15.20;11.00;;;;;18.57;76.32;100136.16;5013633;28;45550;-68
2022/10/27 10:23:22;;;;;;;;;13.80;12.40;;;;;18.65;76.14;100131.28;5020474;28;45508;-68
2022/10/27 10:25:50;;;;;;;;;13.40;11.00;;;;;18.73;75.46;100131.72;5013619;28;45693;-68
2022/10/27 10:28:30;;;;;;;;;10.25;10.25;;;;;18.79;74.43;100129.53;5005842;28;45268;-68
2022/10/27 10:30:56;;;;;;;;;10.20;10.20;;;;;18.87;74.06;100120.22;5013724;28;46319;-68
2022/10/27 10:33:25;;;;;;;;;13.00;11.80;;;;;18.93;73.84;100127.88;5009196;28;45456;-68
2022/10/27 10:35:51;;;;;;;;;15.00;13.50;;;;;19.00;72.99;100131.91;5013568;28;45452;-68
2022/10/27 10:38:22;;;;;;;;;6.75;6.00;;;;;19.07;73.19;100128.81;5010382;28;45461;-68
2022/10/27 10:41:02;;;;;;;;;17.20;12.00;;;;;19.14;73.14;100119.44;5013406;28;46220;-67
2022/10/27 10:43:29;;;;;;;;;11.40;10.60;;;;;19.22;72.16;100123.50;5007664;28;45311;-68
2022/10/27 10:45:55;;;;;;;;;12.00;10.60;;;;;19.28;71.75;100128.44;5013284;28;45334;-67
2022/10/27 10:48:41;;;;;;;;;10.75;9.00;;;;;19.35;71.65;100121.78;5010218;28;45615;-68
2022/10/27 10:51:08;;;;;;;;;16.00;12.75;;;;;19.43;71.39;100122.22;5014072;28;46293;-68
2022/10/27 10:53:50;;;;;;;;;14.40;11.60;;;;;19.49;70.85;100121.81;5015159;28;45468;-68
2022/10/27 10:56:23;;;;;;;;;12.00;9.20;;;;;19.57;70.84;100122.25;5014495;28;45503;-68
2022/10/27 10:59:12;;;;;;;;;10.75;10.75;;;;;19.63;70.89;100121.00;5016620;28;45540;-68
2022/10/27 11:01:59;;;;;;;;;12.00;8.00;;;;;19.71;70.70;100119.59;5007267;28;45448;-68
2022/10/27 11:04:27;;;;;;;;;10.20;9.60;;;;;19.76;70.59;100112.16;5012556;28;45430;-68
2022/10/27 11:07:24;;;;;;;;;13.00;10.80;;;;;19.83;70.58;100108.13;5016585;28;45477;-68
2022/10/27 11:10:13;;;;;;;;;13.00;11.00;;;;;19.92;70.70;100103.16;5015710;28;45362;-68
2022/10/27 11:12:55;;;;;;;;;11.00;10.60;;;;;19.98;69.98;100106.28;5012980;28;46564;-68
2022/10/27 11:15:39;;;;;;;;;11.80;10.20;;;;;19.98;69.20;100100.94;5013758;28;45539;-68
2022/10/27 11:18:20;;;;;;;;;11.60;9.40;;;;;20.03;69.08;100101.53;5008424;28;45549;-68
2022/10/27 11:20:51;;;;;;;;;12.00;10.50;;;;;20.07;66.35;100102.19;5015808;28;45501;-68